Time;durP1;ratioP1;P1;durP2;ratioP2;P2;SDS_P1;SDS_P2;PMS_P1;PMS_P2;Temp;Humidity;BMP_temperature;BMP_pressure;BME280_temperature;BME280_humidity;BME280_pressure;Samples;Min_cycle;Max_cycle;Signal;HPM_P1;HPM_P2
2021/10/29 00:02:25;;;;;;;18.10;9.80;;;;;;;2.61;100.00;98698.88;5030914;28;20033;-66
2021/10/29 00:04:51;;;;;;;21.27;11.38;;;;;;;2.63;100.00;98700.41;5022179;28;20503;-66
2021/10/29 00:07:18;;;;;;;21.83;11.95;;;;;;;2.65;100.00;98702.94;5030087;28;20104;-66
2021/10/29 00:09:43;;;;;;;21.38;11.45;;;;;;;2.60;100.00;98691.88;5033776;28;20021;-66
2021/10/29 00:12:09;;;;;;;19.27;11.40;;;;;;;2.70;100.00;98697.97;5033984;28;20025;-66
2021/10/29 00:14:35;;;;;;;24.15;12.07;;;;;;;2.77;100.00;98693.66;5031092;28;20514;-65
2021/10/29 00:17:01;;;;;;;21.55;11.43;;;;;;;2.71;100.00;98682.75;5031739;28;20076;-66
2021/10/29 00:19:26;;;;;;;23.50;11.73;;;;;;;2.85;100.00;98692.88;5033441;28;20026;-66
2021/10/29 00:21:53;;;;;;;30.88;11.52;;;;;;;2.90;100.00;98692.41;5031661;28;20091;-66
2021/10/29 00:24:19;;;;;;;22.15;11.48;;;;;;;2.85;100.00;98684.84;5031548;28;20095;-66
2021/10/29 00:26:44;;;;;;;23.67;11.20;;;;;;;2.91;100.00;98694.06;5032127;28;20511;-66
2021/10/29 00:29:10;;;;;;;22.88;10.50;;;;;;;2.90;100.00;98687.06;5032626;28;20056;-66
2021/10/29 00:31:35;;;;;;;26.33;11.90;;;;;;;2.97;100.00;98677.44;5033578;28;20037;-66
2021/10/29 00:34:01;;;;;;;24.75;11.00;;;;;;;3.04;100.00;98689.16;5034052;28;20025;-66
2021/10/29 00:36:26;;;;;;;29.50;12.10;;;;;;;2.95;100.00;98690.09;5032705;28;20026;-66
2021/10/29 00:38:52;;;;;;;36.65;12.88;;;;;;;2.92;100.00;98693.09;5052778;28;20053;-66
2021/10/29 00:41:17;;;;;;;33.85;13.00;;;;;;;2.93;100.00;98692.09;5054034;28;20025;-66
2021/10/29 00:43:43;;;;;;;41.90;14.63;;;;;;;3.16;100.00;98698.56;5054531;28;20052;-67
2021/10/29 00:46:08;;;;;;;31.88;14.75;;;;;;;3.15;100.00;98696.06;5054392;28;20032;-66
2021/10/29 00:48:35;;;;;;;30.90;12.65;;;;;;;3.16;100.00;98687.03;5049189;28;20005;-66
2021/10/29 00:51:01;;;;;;;26.55;12.98;;;;;;;3.13;100.00;98687.38;5055895;28;20013;-66
2021/10/29 00:53:27;;;;;;;27.45;13.93;;;;;;;2.99;100.00;98686.13;5054860;28;20029;-66
2021/10/29 00:55:54;;;;;;;29.58;13.02;;;;;;;2.84;100.00;98684.00;5055227;28;20017;-66
2021/10/29 00:58:20;;;;;;;31.67;13.55;;;;;;;2.58;100.00;98683.16;5055217;28;20029;-66
2021/10/29 01:00:46;;;;;;;39.33;14.88;;;;;;;2.40;100.00;98691.19;5055370;28;20009;-66
2021/10/29 01:03:11;;;;;;;29.90;13.57;;;;;;;2.34;100.00;98681.97;5049337;28;20090;-66
2021/10/29 01:05:37;;;;;;;36.95;14.52;;;;;;;2.30;100.00;98672.59;5044076;28;20029;-67
2021/10/29 01:08:02;;;;;;;30.85;13.88;;;;;;;2.46;100.00;98681.72;5053580;28;20475;-66
2021/10/29 01:10:30;;;;;;;26.67;12.38;;;;;;;2.40;100.00;98669.84;5046640;28;20437;-65
2021/10/29 01:12:55;;;;;;;36.10;12.48;;;;;;;2.45;100.00;98680.06;5027689;28;20026;-65
2021/10/29 01:15:20;;;;;;;24.33;12.35;;;;;;;2.40;100.00;98681.34;5032191;28;20052;-65
2021/10/29 01:17:46;;;;;;;25.63;11.10;;;;;;;2.35;100.00;98686.31;5031847;28;20025;-64
2021/10/29 01:20:11;;;;;;;49.60;11.65;;;;;;;2.14;100.00;98691.97;5031927;28;20104;-65
2021/10/29 01:22:37;;;;;;;42.60;11.57;;;;;;;2.00;100.00;98689.00;5032272;28;20094;-65
2021/10/29 01:25:03;;;;;;;30.55;11.48;;;;;;;1.96;100.00;98683.97;5031135;28;20017;-65
2021/10/29 01:27:29;;;;;;;26.58;12.27;;;;;;;1.89;100.00;98677.56;5031516;28;20502;-65
2021/10/29 01:29:54;;;;;;;35.70;12.57;;;;;;;1.84;100.00;98679.00;5029981;28;20104;-64
2021/10/29 01:32:21;;;;;;;35.65;12.52;;;;;;;1.84;100.00;98681.69;5031126;28;20029;-65
2021/10/29 01:34:47;;;;;;;45.05;11.63;;;;;;;1.93;100.00;98686.09;5031202;28;20037;-65
2021/10/29 01:37:14;;;;;;;34.10;12.70;;;;;;;2.21;100.00;98675.34;5031451;28;20034;-65
2021/10/29 01:39:40;;;;;;;71.30;13.23;;;;;;;2.27;100.00;98664.06;5013811;28;20392;-65
2021/10/29 01:42:06;;;;;;;102.43;12.52;;;;;;;2.29;100.00;98667.41;5011564;28;20025;-65
2021/10/29 01:44:31;;;;;;;31.30;11.50;;;;;;;2.30;100.00;98671.75;5027081;28;20041;-65
2021/10/29 01:46:57;;;;;;;23.63;10.30;;;;;;;2.34;100.00;98668.63;5031593;28;20021;-65
2021/10/29 01:49:23;;;;;;;23.40;10.63;;;;;;;2.58;100.00;98685.84;5030020;28;20175;-66
2021/10/29 01:51:48;;;;;;;20.67;10.30;;;;;;;2.47;100.00;98686.94;5031205;28;20033;-65
2021/10/29 01:54:13;;;;;;;37.35;12.52;;;;;;;2.52;100.00;98681.13;5031146;28;20140;-65
2021/10/29 01:56:39;;;;;;;45.63;12.57;;;;;;;2.55;100.00;98675.47;5031616;28;20048;-66
2021/10/29 01:59:05;;;;;;;31.08;12.60;;;;;;;2.58;100.00;98680.50;5029228;28;20605;-65
2021/10/29 02:01:30;;;;;;;34.60;13.05;;;;;;;2.83;100.00;98677.00;5031052;28;20491;-65
2021/10/29 02:03:56;;;;;;;36.47;14.85;;;;;;;2.95;100.00;98679.41;5031308;28;20060;-65
2021/10/29 02:06:21;;;;;;;40.97;13.68;;;;;;;2.83;100.00;98677.00;5031075;28;20053;-65
2021/10/29 02:08:47;;;;;;;42.60;13.93;;;;;;;2.69;100.00;98669.56;5030414;28;20034;-65
2021/10/29 02:11:13;;;;;;;31.70;12.82;;;;;;;2.58;100.00;98677.81;5031702;28;20021;-67
2021/10/29 02:13:38;;;;;;;50.40;13.77;;;;;;;2.33;100.00;98668.78;5031466;28;20456;-66
2021/10/29 02:16:04;;;;;;;31.35;13.88;;;;;;;2.33;100.00;98669.63;5028905;28;20096;-65
2021/10/29 02:18:29;;;;;;;29.95;14.82;;;;;;;2.51;100.00;98668.75;5031240;28;20699;-66
2021/10/29 02:20:56;;;;;;;33.20;15.30;;;;;;;2.52;100.00;98665.94;5031251;28;20033;-66
2021/10/29 02:23:21;;;;;;;37.30;15.27;;;;;;;2.49;100.00;98652.03;5034349;28;20163;-66
2021/10/29 02:25:47;;;;;;;33.30;14.48;;;;;;;2.37;100.00;98664.81;5033955;28;20104;-66
2021/10/29 02:28:15;;;;;;;44.05;13.85;;;;;;;2.23;100.00;98660.00;5034375;28;20143;-66
2021/10/29 02:30:41;;;;;;;35.35;14.57;;;;;;;2.04;100.00;98658.34;5035375;28;20025;-65
2021/10/29 02:33:06;;;;;;;53.13;14.05;;;;;;;2.00;100.00;98655.16;5034902;28;20483;-66
2021/10/29 02:35:32;;;;;;;58.55;14.25;;;;;;;2.02;100.00;98658.50;5034174;28;20029;-66
2021/10/29 02:37:57;;;;;;;27.90;12.82;;;;;;;2.09;100.00;98675.56;5034853;28;20025;-66
2021/10/29 02:40:23;;;;;;;26.15;12.35;;;;;;;2.10;100.00;98669.25;5033053;28;20036;-66
2021/10/29 02:42:48;;;;;;;24.40;11.73;;;;;;;2.01;100.00;98669.31;5034905;28;20033;-66
2021/10/29 02:45:13;;;;;;;41.03;12.52;;;;;;;1.87;100.00;98663.53;5034397;28;20036;-66
2021/10/29 02:47:39;;;;;;;25.73;11.45;;;;;;;1.69;100.00;98636.84;5033898;28;20029;-65
2021/10/29 02:50:04;;;;;;;39.33;9.98;;;;;;;1.81;100.00;98669.47;5033469;28;20033;-65
2021/10/29 02:52:30;;;;;;;23.23;10.75;;;;;;;1.80;100.00;98666.94;5034280;28;20403;-66
2021/10/29 02:54:55;;;;;;;18.73;9.25;;;;;;;1.71;100.00;98674.03;5033318;28;20422;-66
2021/10/29 02:57:21;;;;;;;19.67;9.27;;;;;;;1.64;100.00;98663.13;5034168;28;20045;-66
2021/10/29 02:59:46;;;;;;;49.83;10.38;;;;;;;1.64;100.00;98662.28;5033570;28;20044;-66
2021/10/29 03:02:12;;;;;;;16.27;9.00;;;;;;;1.70;100.00;98662.53;5033861;28;20033;-74
2021/10/29 03:04:37;;;;;;;17.20;9.07;;;;;;;1.80;100.00;98662.44;5028055;28;20021;-74
2021/10/29 03:07:02;;;;;;;23.05;9.38;;;;;;;1.80;100.00;98650.94;5014690;28;20491;-74
2021/10/29 03:09:28;;;;;;;18.77;10.00;;;;;;;1.81;100.00;98653.47;5024580;28;20033;-75
2021/10/29 03:11:53;;;;;;;38.50;10.40;;;;;;;1.93;100.00;98646.91;5033290;28;20048;-77
2021/10/29 03:14:19;;;;;;;26.48;9.90;;;;;;;2.01;100.00;98658.66;5032036;28;20430;-75
2021/10/29 03:16:45;;;;;;;35.05;11.25;;;;;;;2.03;100.00;98656.69;5033317;28;20383;-75
2021/10/29 03:19:11;;;;;;;25.85;10.35;;;;;;;2.10;100.00;98663.91;5034059;28;20026;-75
2021/10/29 03:21:36;;;;;;;21.15;9.43;;;;;;;1.94;100.00;98635.25;5028075;28;20407;-75
2021/10/29 03:24:01;;;;;;;19.88;10.18;;;;;;;2.06;100.00;98643.03;5017803;28;20447;-75
2021/10/29 03:26:27;;;;;;;16.40;8.85;;;;;;;2.27;100.00;98650.72;5034725;28;20027;-75
2021/10/29 03:28:52;;;;;;;29.35;9.10;;;;;;;2.29;100.00;98660.25;5033554;28;20093;-74
2021/10/29 03:31:18;;;;;;;16.65;9.32;;;;;;;2.32;100.00;98643.91;5034267;28;20037;-75
2021/10/29 03:33:43;;;;;;;23.23;8.93;;;;;;;2.19;100.00;98635.47;5032160;28;20049;-75
2021/10/29 03:36:08;;;;;;;18.67;9.10;;;;;;;2.47;100.00;98630.03;5033389;28;20021;-76
2021/10/29 03:38:52;;;;;;;21.00;10.25;;;;;;;2.49;100.00;98626.19;5034114;28;20032;-77
2021/10/29 03:41:20;;;;;;;17.42;10.57;;;;;;;2.51;100.00;98621.53;5032965;28;20566;-74
2021/10/29 03:44:14;;;;;;;26.38;12.07;;;;;;;2.77;100.00;98648.22;5035868;28;20021;-74
2021/10/29 03:46:40;;;;;;;21.77;10.73;;;;;;;2.39;100.00;98630.78;5021574;28;20044;-75
2021/10/29 03:49:16;;;;;;;35.75;12.52;;;;;;;2.40;100.00;98649.31;5041503;28;20021;-73
2021/10/29 03:51:50;;;;;;;30.15;11.90;;;;;;;2.25;100.00;98624.16;5031887;28;20025;-75
2021/10/29 03:54:18;;;;;;;86.15;12.73;;;;;;;2.14;100.00;98611.91;5033790;28;20017;-74
2021/10/29 03:57:08;;;;;;;22.83;11.43;;;;;;;2.23;100.00;98614.63;5031441;28;20467;-72
2021/10/29 03:59:33;;;;;;;33.55;10.65;;;;;;;2.29;100.00;98633.56;5030285;28;20075;-71
2021/10/29 04:01:59;;;;;;;39.00;11.38;;;;;;;2.22;100.00;98632.47;5031977;28;20029;-74
2021/10/29 04:04:24;;;;;;;20.85;10.02;;;;;;;2.08;100.00;98606.34;5024635;28;20018;-73
2021/10/29 04:06:50;;;;;;;18.77;10.65;;;;;;;2.16;100.00;98628.59;5028793;28;20178;-73
2021/10/29 04:09:15;;;;;;;28.45;11.23;;;;;;;2.04;100.00;98608.47;5038655;28;20155;-73
2021/10/29 04:11:41;;;;;;;52.63;10.90;;;;;;;2.08;100.00;98612.53;5039770;28;20017;-73
2021/10/29 04:14:13;;;;;;;22.75;11.65;;;;;;;2.17;100.00;98632.09;5036537;28;20075;-75
2021/10/29 04:16:40;;;;;;;38.22;11.05;;;;;;;2.06;100.00;98619.00;5042784;28;20021;-73
2021/10/29 04:19:08;;;;;;;21.27;11.07;;;;;;;1.97;100.00;98615.44;5041047;28;20562;-76
2021/10/29 04:21:35;;;;;;;27.48;11.60;;;;;;;2.14;100.00;98640.44;5040900;28;20017;-75
2021/10/29 04:24:01;;;;;;;16.98;10.00;;;;;;;2.03;100.00;98622.81;5035254;28;20503;-75
2021/10/29 04:26:26;;;;;;;29.85;11.77;;;;;;;2.14;100.00;98637.75;5034373;28;20036;-73
2021/10/29 04:28:54;;;;;;;26.65;10.07;;;;;;;1.95;100.00;98626.25;5033199;28;20411;-72
2021/10/29 04:31:23;;;;;;;19.63;8.95;;;;;;;1.95;100.00;98644.94;5041592;28;20025;-76
2021/10/29 04:33:50;;;;;;;18.93;8.27;;;;;;;1.82;100.00;98652.47;5041398;28;20028;-76
2021/10/29 04:36:15;;;;;;;22.02;8.80;;;;;;;1.72;100.00;98646.38;5028139;28;20025;-74
2021/10/29 04:38:41;;;;;;;12.77;8.00;;;;;;;1.72;100.00;98638.38;5034209;28;20025;-70
2021/10/29 04:41:06;;;;;;;25.83;9.15;;;;;;;1.57;100.00;98626.53;5047237;28;20037;-70
2021/10/29 04:43:31;;;;;;;13.40;7.97;;;;;;;1.56;100.00;98624.88;5044482;28;20067;-75
2021/10/29 04:45:57;;;;;;;15.75;7.95;;;;;;;1.56;100.00;98617.72;5039168;28;20462;-76
2021/10/29 04:48:22;;;;;;;14.38;8.65;;;;;;;1.65;100.00;98623.94;5039888;28;20045;-76
2021/10/29 04:50:47;;;;;;;28.50;10.40;;;;;;;1.72;100.00;98601.84;5041238;28;20025;-76
2021/10/29 04:53:13;;;;;;;16.83;9.48;;;;;;;1.85;100.00;98612.16;5040964;28;20053;-77
2021/10/29 04:55:38;;;;;;;15.80;9.05;;;;;;;1.80;100.00;98590.44;5041754;28;20017;-72
2021/10/29 04:58:06;;;;;;;17.15;9.80;;;;;;;1.93;100.00;98596.22;5032777;28;20025;-74
2021/10/29 05:00:32;;;;;;;33.42;11.45;;;;;;;2.07;100.00;98594.00;5030976;28;20086;-74
2021/10/29 05:02:58;;;;;;;23.85;10.35;;;;;;;2.24;100.00;98605.66;5032141;28;20089;-74
2021/10/29 05:05:23;;;;;;;22.75;11.90;;;;;;;2.48;100.00;98607.66;5032074;28;20479;-72
2021/10/29 05:07:49;;;;;;;31.67;11.38;;;;;;;2.50;100.00;98616.34;5031478;28;20033;-72
2021/10/29 05:10:14;;;;;;;118.82;12.60;;;;;;;2.41;100.00;98586.94;5031831;28;20037;-74
2021/10/29 05:12:40;;;;;;;44.10;13.40;;;;;;;2.54;100.00;98604.34;5036164;28;20497;-73
2021/10/29 05:15:06;;;;;;;115.05;13.48;;;;;;;2.37;100.00;98601.56;5027561;28;20030;-72
2021/10/29 05:17:31;;;;;;;28.58;11.93;;;;;;;2.40;100.00;98611.09;5031242;28;20024;-71
2021/10/29 05:19:56;;;;;;;28.52;12.13;;;;;;;2.49;100.00;98623.53;5030352;28;20029;-70
2021/10/29 05:22:21;;;;;;;34.75;10.82;;;;;;;2.27;100.00;98571.47;5031865;28;20034;-73
2021/10/29 05:24:47;;;;;;;20.95;9.45;;;;;;;2.35;100.00;98592.88;5033518;28;20475;-74
2021/10/29 05:27:14;;;;;;;35.03;9.52;;;;;;;2.39;100.00;98620.13;5045104;28;20046;-72
2021/10/29 05:29:40;;;;;;;24.33;9.82;;;;;;;2.27;100.00;98605.34;5059045;28;20043;-72
2021/10/29 05:32:05;;;;;;;21.77;9.88;;;;;;;2.26;100.00;98604.50;5067271;28;20040;-72
2021/10/29 05:34:31;;;;;;;30.67;10.27;;;;;;;2.29;100.00;98588.16;5046008;28;20087;-74
2021/10/29 05:36:56;;;;;;;31.25;10.35;;;;;;;2.40;100.00;98611.94;5054113;28;20036;-74
2021/10/29 05:39:22;;;;;;;35.70;10.90;;;;;;;2.47;100.00;98606.00;5054620;28;20059;-72
2021/10/29 05:41:48;;;;;;;20.88;10.75;;;;;;;2.56;100.00;98610.38;5046953;28;20049;-73
2021/10/29 05:44:15;;;;;;;39.08;11.27;;;;;;;2.54;100.00;98596.34;5031030;28;20031;-74
2021/10/29 05:46:42;;;;;;;21.33;11.13;;;;;;;2.78;100.00;98614.38;5029796;28;20364;-74
2021/10/29 05:49:13;;;;;;;25.48;11.10;;;;;;;2.81;100.00;98609.53;5031300;28;20029;-76
2021/10/29 05:51:44;;;;;;;31.08;10.85;;;;;;;2.87;100.00;98625.94;5038101;28;20030;-76
2021/10/29 05:56:59;;;;;;;29.70;11.27;;;;;;;2.74;100.00;98589.78;5043456;28;20452;-67
2021/10/29 05:59:24;;;;;;;34.92;12.30;;;;;;;2.84;100.00;98609.22;5055607;28;20354;-71
2021/10/29 06:01:50;;;;;;;63.08;13.00;;;;;;;2.74;100.00;98613.81;5053305;28;20472;-69
2021/10/29 06:04:15;;;;;;;55.10;12.18;;;;;;;2.77;100.00;98618.00;5053757;28;20029;-69
2021/10/29 06:06:40;;;;;;;52.17;12.38;;;;;;;2.57;100.00;98588.03;5053838;28;20032;-67
2021/10/29 06:09:06;;;;;;;64.20;13.27;;;;;;;2.68;100.00;98601.13;5055193;28;20454;-68
2021/10/29 06:11:31;;;;;;;42.75;10.40;;;;;;;2.75;100.00;98615.53;5047636;28;20672;-69
2021/10/29 06:13:57;;;;;;;47.58;11.32;;;;;;;2.73;100.00;98622.00;5048686;28;20061;-70
2021/10/29 06:16:22;;;;;;;45.75;10.10;;;;;;;2.85;100.00;98621.56;5053123;28;20107;-70
2021/10/29 06:18:48;;;;;;;67.78;11.90;;;;;;;2.63;100.00;98609.59;5047288;28;20041;-73
2021/10/29 06:21:16;;;;;;;30.65;11.18;;;;;;;2.70;100.00;98614.28;5051063;28;20619;-72
2021/10/29 06:23:55;;;;;;;42.22;11.05;;;;;;;2.71;100.00;98614.16;5050586;28;20025;-74
2021/10/29 06:26:23;;;;;;;38.40;11.10;;;;;;;2.83;100.00;98628.91;5052885;28;20577;-71
2021/10/29 06:28:49;;;;;;;47.05;11.70;;;;;;;2.89;100.00;98623.94;5062109;28;20036;-71
2021/10/29 06:31:16;;;;;;;45.03;11.57;;;;;;;2.93;100.00;98620.75;5045275;28;20025;-70
2021/10/29 06:33:42;;;;;;;47.50;11.05;;;;;;;3.04;100.00;98625.03;5043927;28;20028;-68
2021/10/29 06:36:08;;;;;;;46.78;12.80;;;;;;;3.15;100.00;98623.91;5041571;28;20033;-69
2021/10/29 06:38:33;;;;;;;19.13;10.80;;;;;;;3.27;100.00;98625.25;5050574;28;20029;-69
2021/10/29 06:40:59;;;;;;;38.88;10.73;;;;;;;3.26;100.00;98635.13;5054194;28;20470;-69
2021/10/29 06:43:31;;;;;;;64.75;11.90;;;;;;;3.23;100.00;98638.13;5053658;28;20021;-72
2021/10/29 06:48:33;;;;;;;64.78;11.05;;;;;;;3.45;100.00;98633.19;5045648;28;20037;-71
2021/10/29 07:39:55;;;;;;;24.35;8.82;;;;;;;4.37;100.00;98636.66;5049928;28;20059;-74
2021/10/29 07:40:08;;;;;;;10.73;7.22;;;;;;;5.73;95.20;98620.50;5048935;28;20455;-70
2021/10/29 07:42:49;;;;;;;22.08;8.25;;;;;;;5.90;96.27;98632.00;5054577;28;20082;-70
2021/10/29 07:45:15;;;;;;;13.70;7.80;;;;;;;6.09;94.09;98628.03;5048690;28;20706;-69
2021/10/29 07:47:41;;;;;;;22.98;7.88;;;;;;;6.12;92.55;98615.06;5056054;28;20058;-69
2021/10/29 07:50:09;;;;;;;19.42;8.75;;;;;;;5.89;92.01;98608.81;5055428;28;20375;-69
2021/10/29 07:52:36;;;;;;;19.85;7.50;;;;;;;5.99;93.03;98601.41;5048709;28;20382;-72
2021/10/29 07:55:03;;;;;;;15.48;7.80;;;;;;;6.12;92.62;98608.88;5054131;28;20395;-72
2021/10/29 07:57:29;;;;;;;20.55;7.55;;;;;;;6.14;90.95;98629.16;5053762;28;20040;-72
2021/10/29 07:59:55;;;;;;;11.88;6.38;;;;;;;6.23;90.65;98621.88;5054234;28;20414;-74
2021/10/29 08:02:25;;;;;;;17.90;7.57;;;;;;;6.22;90.45;98604.09;5036986;28;20009;-75
2021/10/29 08:04:52;;;;;;;12.85;7.88;;;;;;;6.47;88.46;98579.69;5047844;28;20040;-73
2021/10/29 08:07:18;;;;;;;17.98;8.65;;;;;;;6.35;87.84;98590.88;5051732;28;20021;-72
2021/10/29 08:09:44;;;;;;;14.68;7.82;;;;;;;6.28;91.21;98594.47;5057428;28;20040;-74
2021/10/29 08:12:11;;;;;;;10.80;7.22;;;;;;;6.20;90.16;98568.50;5057373;28;20376;-68
2021/10/29 08:14:37;;;;;;;14.88;7.40;;;;;;;6.43;91.13;98613.31;5046460;28;20028;-67
2021/10/29 08:17:02;;;;;;;9.40;6.50;;;;;;;6.66;88.15;98598.00;5043385;28;20775;-69
2021/10/29 08:19:31;;;;;;;11.10;6.20;;;;;;;6.87;87.71;98602.66;5046692;28;20036;-70
2021/10/29 08:21:56;;;;;;;15.52;6.60;;;;;;;7.33;86.03;98597.03;5061973;28;20032;-71
2021/10/29 08:24:22;;;;;;;24.05;6.28;;;;;;;7.43;84.47;98596.75;5053325;28;20387;-71
2021/10/29 08:26:48;;;;;;;10.52;6.90;;;;;;;7.33;85.51;98604.28;5053623;28;20036;-71
2021/10/29 08:29:14;;;;;;;8.20;5.93;;;;;;;7.99;82.74;98618.53;5047645;28;20023;-73
2021/10/29 08:31:39;;;;;;;9.05;6.20;;;;;;;8.66;80.30;98614.59;5053368;28;20017;-69
2021/10/29 08:34:04;;;;;;;10.13;5.55;;;;;;;8.87;78.79;98621.81;5050149;28;20029;-73
2021/10/29 08:36:32;;;;;;;8.52;5.97;;;;;;;9.11;77.64;98622.38;5053462;28;20107;-71
2021/10/29 08:38:57;;;;;;;11.77;5.80;;;;;;;9.19;75.70;98624.91;5051189;28;20021;-71
2021/10/29 08:41:24;;;;;;;10.50;6.53;;;;;;;9.09;78.89;98602.84;5049341;28;20483;-71
2021/10/29 08:43:49;;;;;;;9.95;6.55;;;;;;;9.14;77.87;98595.00;5045298;28;20021;-73
2021/10/29 08:46:16;;;;;;;12.07;6.97;;;;;;;9.18;77.74;98616.00;5051874;28;20398;-70
2021/10/29 08:48:43;;;;;;;10.48;7.53;;;;;;;8.84;77.65;98595.22;5049075;28;20101;-75
2021/10/29 08:51:08;;;;;;;9.70;7.53;;;;;;;8.83;77.40;98612.47;5051949;28;20060;-70
2021/10/29 08:53:33;;;;;;;8.98;6.70;;;;;;;9.90;74.32;98602.16;5047624;28;20115;-69
2021/10/29 08:56:02;;;;;;;9.02;6.72;;;;;;;11.03;70.31;98589.53;5051190;28;20087;-72
2021/10/29 08:58:31;;;;;;;9.70;7.00;;;;;;;12.14;65.35;98596.59;5041536;28;20072;-71
2021/10/29 09:01:02;;;;;;;9.35;6.82;;;;;;;12.18;65.04;98595.13;5039508;28;20403;-70
2021/10/29 09:03:43;;;;;;;10.02;7.13;;;;;;;11.96;67.17;98594.63;5045494;28;20025;-73
2021/10/29 09:09:26;;;;;;;8.77;6.68;;;;;;;11.14;68.72;98598.88;5047124;28;20036;-73
2021/10/29 09:33:58;;;;;;;9.35;6.70;;;;;;;17.70;50.16;98543.56;5049335;28;20122;-72
2021/10/29 09:36:41;;;;;;;8.55;7.13;;;;;;;17.52;48.40;98542.78;5049724;28;20078;-70
2021/10/29 09:39:10;;;;;;;7.53;6.38;;;;;;;18.56;47.57;98540.03;5052348;28;20386;-70
2021/10/29 09:41:37;;;;;;;9.45;7.25;;;;;;;18.99;46.63;98538.19;5051387;28;20775;-70
2021/10/29 09:44:17;;;;;;;9.43;6.03;;;;;;;20.46;42.75;98517.81;5055651;28;20431;-70
2021/10/29 09:46:58;;;;;;;7.93;5.57;;;;;;;21.84;40.44;98524.91;5041544;28;20040;-74
2021/10/29 09:50:12;;;;;;;10.35;6.50;;;;;;;20.76;41.04;98536.25;5050470;28;20021;-69
2021/10/29 09:54:58;;;;;;;6.50;5.82;;;;;;;22.05;39.92;98520.94;5047318;28;20442;-69
2021/10/29 09:57:24;;;;;;;6.40;5.50;;;;;;;22.67;39.41;98520.50;5050659;28;20107;-69
2021/10/29 09:59:55;;;;;;;6.20;5.60;;;;;;;20.85;40.42;98538.44;5048010;28;20056;-69
2021/10/29 10:02:23;;;;;;;6.22;5.35;;;;;;;22.27;39.55;98519.72;5047135;28;20036;-68
2021/10/29 10:04:50;;;;;;;6.30;5.35;;;;;;;23.04;38.09;98524.59;5044804;28;20051;-69
2021/10/29 10:07:18;;;;;;;6.28;5.60;;;;;;;23.05;38.12;98516.00;5051172;28;20024;-69
2021/10/29 10:09:44;;;;;;;7.53;5.20;;;;;;;23.02;38.42;98510.25;5051929;28;20032;-69
2021/10/29 10:12:10;;;;;;;6.47;5.40;;;;;;;22.58;38.28;98502.91;5049040;28;20112;-69
2021/10/29 10:14:37;;;;;;;6.13;5.50;;;;;;;21.50;40.34;98498.09;5040379;28;20021;-72
2021/10/29 10:17:03;;;;;;;5.32;4.82;;;;;;;21.40;41.26;98522.91;5047831;28;20460;-70
2021/10/29 10:19:28;;;;;;;5.40;4.32;;;;;;;21.75;41.78;98513.69;5048842;28;20111;-70
2021/10/29 10:21:56;;;;;;;7.03;5.68;;;;;;;21.07;42.75;98521.63;5049697;28;20112;-73
2021/10/29 10:24:29;;;;;;;6.13;5.40;;;;;;;21.55;40.76;98495.31;5045529;28;20111;-73
2021/10/29 10:41:04;;;;;;;6.68;5.78;;;;;;;22.39;39.34;98513.84;5041342;28;20031;-69
2021/10/29 10:43:42;;;;;;;7.68;6.20;;;;;;;22.42;38.17;98480.19;5037716;28;20502;-69
2021/10/29 10:46:20;;;;;;;9.07;7.30;;;;;;;22.16;39.09;98496.06;5047272;28;20368;-68
2021/10/29 10:49:02;;;;;;;8.70;7.13;;;;;;;21.75;39.48;98485.31;5051104;28;20146;-69
2021/10/29 10:51:52;;;;;;;10.27;7.15;;;;;;;21.09;39.97;98497.38;5037022;28;20025;-69
2021/10/29 11:02:30;;;;;;;9.05;7.25;;;;;;;23.27;37.13;98474.09;5048399;28;20481;-70
2021/10/29 11:10:08;;;;;;;10.70;7.50;;;;;;;22.42;39.00;98467.22;5050498;28;20035;-70
2021/10/29 11:12:39;;;;;;;11.15;7.43;;;;;;;23.23;37.66;98456.47;5034393;28;20034;-70
2021/10/29 11:15:08;;;;;;;7.88;6.80;;;;;;;24.10;37.29;98455.28;5040717;28;20465;-69
2021/10/29 11:17:52;;;;;;;9.38;7.50;;;;;;;24.35;36.22;98458.75;5031485;28;20422;-70
2021/10/29 11:20:37;;;;;;;9.60;7.75;;;;;;;24.51;34.59;98460.16;5037970;28;20060;-70
2021/10/29 11:23:07;;;;;;;10.85;8.35;;;;;;;24.36;35.79;98454.84;5049296;28;20529;-68
2021/10/29 11:26:00;;;;;;;9.25;7.25;;;;;;;25.76;33.34;98452.72;5049374;28;20075;-70
2021/10/29 11:28:32;;;;;;;12.57;7.72;;;;;;;25.44;33.49;98432.38;5050456;28;20028;-69
2021/10/29 11:30:59;;;;;;;6.13;5.10;;;;;;;27.25;31.73;98436.75;5042909;28;20045;-70
2021/10/29 11:33:25;;;;;;;10.63;7.50;;;;;;;26.25;32.82;98431.59;5050500;28;20025;-69
2021/10/29 11:36:15;;;;;;;9.90;7.60;;;;;;;25.79;32.38;98430.75;5041781;28;20391;-70
2021/10/29 11:38:43;;;;;;;7.32;6.50;;;;;;;24.79;34.17;98438.09;5042001;28;20047;-70
2021/10/29 11:41:14;;;;;;;10.97;6.80;;;;;;;25.09;33.60;98425.59;5046299;28;20128;-69
2021/10/29 11:43:43;;;;;;;8.13;6.53;;;;;;;26.60;31.62;98416.03;5041663;28;20025;-69
2021/10/29 11:46:11;;;;;;;12.43;7.07;;;;;;;25.73;32.90;98414.56;5045129;28;20071;-69
2021/10/29 11:48:51;;;;;;;10.38;7.07;;;;;;;24.30;35.01;98412.66;5050096;28;20037;-70
2021/10/29 11:51:19;;;;;;;8.82;7.00;;;;;;;24.33;35.91;98401.00;5039699;28;20028;-69
2021/10/29 11:53:53;;;;;;;10.90;7.47;;;;;;;24.58;35.08;98396.16;5040827;28;20060;-69
2021/10/29 11:56:24;;;;;;;10.57;6.18;;;;;;;25.19;34.22;98388.63;5045024;28;20776;-69
2021/10/29 11:59:07;;;;;;;8.77;6.32;;;;;;;25.23;35.14;98375.78;5046919;28;20040;-70
2021/10/29 12:01:38;;;;;;;9.18;7.10;;;;;;;25.27;34.64;98365.72;5047108;28;20028;-69
2021/10/29 12:09:31;;;;;;;9.32;6.82;;;;;;;23.94;36.29;98363.50;5047522;28;20067;-69
2021/10/29 12:12:08;;;;;;;7.65;6.40;;;;;;;24.14;35.61;98365.13;5044396;28;20053;-69
2021/10/29 12:14:37;;;;;;;9.32;6.43;;;;;;;24.56;34.86;98362.47;5044985;28;20586;-69
2021/10/29 12:17:10;;;;;;;10.02;6.88;;;;;;;25.88;32.95;98350.47;5044501;28;20491;-69
2021/10/29 12:19:41;;;;;;;8.50;6.13;;;;;;;24.05;35.75;98350.34;5038274;28;20087;-70
2021/10/29 12:22:23;;;;;;;9.75;7.03;;;;;;;23.86;36.88;98349.56;5035437;28;20041;-68
2021/10/29 12:24:54;;;;;;;8.05;6.22;;;;;;;24.10;36.40;98347.47;5046040;28;20029;-68
2021/10/29 12:27:23;;;;;;;7.88;6.95;;;;;;;24.38;35.55;98342.03;5033318;28;20487;-69
2021/10/29 12:30:17;;;;;;;10.43;7.25;;;;;;;24.70;35.35;98336.41;5047532;28;20406;-69
2021/10/29 12:33:04;;;;;;;9.20;6.75;;;;;;;24.18;36.04;98333.00;5042020;28;20102;-69
2021/10/29 12:51:52;;;;;;;7.95;6.05;;;;;;;26.40;33.03;98325.00;5049154;28;20548;-69
2021/10/29 12:58:51;;;;;;;8.25;6.63;;;;;;;26.47;33.41;98310.69;5033926;28;20026;-69
2021/10/29 13:01:32;;;;;;;11.32;6.78;;;;;;;25.57;33.98;98311.56;5043901;28;20037;-69
2021/10/29 13:04:08;;;;;;;7.80;6.00;;;;;;;25.73;33.67;98310.06;5036673;28;20033;-72
2021/10/29 13:06:42;;;;;;;7.25;5.75;;;;;;;25.30;33.63;98299.47;5041673;28;20051;-69
2021/10/29 13:09:12;;;;;;;8.57;6.15;;;;;;;25.92;33.43;98287.72;5035731;28;20033;-69
2021/10/29 13:11:44;;;;;;;6.63;5.20;;;;;;;26.49;32.72;98286.19;5032998;28;20041;-69
2021/10/29 13:14:11;;;;;;;7.20;5.85;;;;;;;26.13;33.16;98276.09;5032299;28;20059;-69
2021/10/29 13:16:36;;;;;;;8.15;6.18;;;;;;;25.73;33.64;98289.88;5044313;28;20029;-69
2021/10/29 13:35:23;;;;;;;8.80;6.53;;;;;;;24.97;35.40;98273.06;5045139;28;20029;-69
2021/10/29 13:37:59;;;;;;;8.05;6.57;;;;;;;24.75;35.78;98257.22;5030095;28;20048;-69
2021/10/29 13:51:35;;;;;;;10.60;5.88;;;;;;;25.46;34.54;98261.13;5044556;28;20801;-70
2021/10/29 13:54:10;;;;;;;7.25;5.53;;;;;;;25.33;34.82;98251.75;5041051;28;20047;-70
2021/10/29 13:56:56;;;;;;;8.50;5.72;;;;;;;24.53;36.08;98253.25;5029451;28;20087;-70
2021/10/29 14:29:40;;;;;;;8.40;4.22;;;;;;;23.50;36.59;98251.53;5051792;28;20402;-69
2021/10/29 14:34:42;;;;;;;8.77;4.97;;;;;;;22.77;38.60;98233.56;5041798;28;20037;-70
2021/10/29 14:37:18;;;;;;;9.48;5.40;;;;;;;22.17;40.76;98246.97;5041793;28;20030;-69
2021/10/29 15:01:08;;;;;;;7.68;5.50;;;;;;;20.77;41.27;98240.94;5048177;28;20036;-69
2021/10/29 15:24:50;;;;;;;9.75;6.30;;;;;;;19.23;47.83;98269.81;5049308;28;20031;-68
2021/10/29 15:30:05;;;;;;;10.43;6.57;;;;;;;17.95;52.64;98272.91;5047624;28;20613;-68